Airport View

Enter AWOS ICAO identifier for current METAR.

ex. KFNL

KBUR 100353Z 13007KT 10SM CLR 24/14 A2989 RMK AO2 SLP108 T02440139

10 Jul 2020 04:29

Phone: 818-841-1384

Other Area AWOS: KWHP - KVNY - KCQT - KSMO

TAF KBUR 092327Z 1000/1024 17010KT P6SM SKC FM100500 VRB03KT P6SM SKC FM102000 18009KT P6SM SKC